Pagina principale
METAR-TAF:

METAR-TAF

Aeroporti :

Aeroporto di Maun

Maun, Botswana

latitudine: 19-59S, longitudine: 023-25E, altezza: 945 m

Osservazione

Il bollettino è stato emesso 20 minuti fa, alle 03:00 UTC
Vento 3 kt da sud-est
Temperature 21°C
Umidità 88%
Pressione 1016 hPa
Visibilità 10 km o più
nessuna nube inferiore a 1500 m e nessun cumulonembo

METAR: FBMN 300300Z 14003KT CAVOK 21/19 Q1016

Ora: 05:20 (03:20 UTC)

Previsione

Il bollettino è stato emesso 3 ore e 20 minuti fa, alle 00:00 UTC
Previsione valida dal 30 alle 03 UTC al 30 alle 12 UTC
Vento 2 kt da direzioni variabili
Visibilità 10 km o più
nessuna nube inferiore a 1500 m e nessun cumulonembo

TAF: FBMN 300000Z 3003/3012 VRB02KT CAVOK

Osservazioni e previsioni meteorologiche di più di 4000 aeroporti (messaggi METAR e TAF).

Le stazioni disponibili sono rappresentate dai dischi gialli e rossi sulla carta.

Puntare il mouse per vedere il nome della stazione.

Clicca sopra per visualizzare le osservazioni e previsioni meteorologiche.

Per cambiare la mappa : fare clic sui pulsanti verdi con una croce nera per ingrandire, il pulsante verde con un trattino per diminuire, o sulla freccia verde per le mappe adiacenti.


METAR-TAF: